createdAt,value
2023-05-10T00:00:04.595Z,21.68
2023-05-10T00:01:09.926Z,21.67
2023-05-10T00:02:15.689Z,21.66
2023-05-10T00:03:21.114Z,21.67
2023-05-10T00:04:26.864Z,21.67
2023-05-10T00:05:32.302Z,21.66
2023-05-10T00:06:37.682Z,21.68
2023-05-10T00:07:43.061Z,21.69
2023-05-10T00:08:48.652Z,21.69
2023-05-10T00:09:54.018Z,21.67
2023-05-10T00:10:59.349Z,21.67
2023-05-10T00:12:04.680Z,21.68
2023-05-10T00:13:10.012Z,21.67
2023-05-10T00:14:15.562Z,21.66
2023-05-10T00:15:20.970Z,21.67
2023-05-10T00:16:26.329Z,21.67
2023-05-10T00:17:31.821Z,21.67
2023-05-10T00:18:37.252Z,21.67
2023-05-10T00:19:42.566Z,21.66
2023-05-10T00:20:47.926Z,21.66
2023-05-10T00:21:53.252Z,21.66
2023-05-10T00:22:58.576Z,21.67
2023-05-10T00:24:03.925Z,21.69
2023-05-10T00:25:09.275Z,21.68
2023-05-10T00:26:14.605Z,21.68
2023-05-10T00:27:20.004Z,21.67
2023-05-10T00:28:25.337Z,21.68
2023-05-10T00:29:30.726Z,21.67
2023-05-10T00:30:36.085Z,21.69
2023-05-10T00:31:41.452Z,21.68
2023-05-10T00:32:46.898Z,21.67
2023-05-10T00:33:52.341Z,21.67
2023-05-10T00:34:57.718Z,21.66
2023-05-10T00:36:03.072Z,21.67
2023-05-10T00:37:08.418Z,21.67
2023-05-10T00:38:16.256Z,21.67
2023-05-10T00:39:21.605Z,21.7
2023-05-10T00:40:26.950Z,21.69
2023-05-10T00:41:32.283Z,21.7
2023-05-10T00:42:37.644Z,21.67
2023-05-10T00:43:42.957Z,21.66
2023-05-10T00:44:48.306Z,21.66
2023-05-10T00:45:53.649Z,21.66
2023-05-10T00:46:59.090Z,21.65
2023-05-10T00:48:04.547Z,21.65
2023-05-10T00:49:10.051Z,21.66
2023-05-10T00:50:15.647Z,21.66
2023-05-10T00:51:21.779Z,21.66
2023-05-10T00:52:27.178Z,21.65
2023-05-10T00:53:32.554Z,21.66
2023-05-10T00:54:37.921Z,21.68
2023-05-10T00:55:43.239Z,21.65
2023-05-10T00:56:48.658Z,21.67
2023-05-10T00:57:54.019Z,21.68
2023-05-10T00:58:59.327Z,21.66
2023-05-10T01:00:04.705Z,21.65
2023-05-10T01:01:10.089Z,21.66
2023-05-10T01:02:15.553Z,21.66
2023-05-10T01:03:21.083Z,21.66
2023-05-10T01:04:26.905Z,21.65
2023-05-10T01:05:32.481Z,21.65
2023-05-10T01:06:37.799Z,21.62
2023-05-10T01:07:43.380Z,21.64
2023-05-10T01:08:48.747Z,21.61
2023-05-10T01:09:54.060Z,21.64
2023-05-10T01:10:59.378Z,21.64
2023-05-10T01:12:04.777Z,21.62
2023-05-10T01:13:10.254Z,21.63
2023-05-10T01:14:15.805Z,21.64
2023-05-10T01:15:21.148Z,21.64
2023-05-10T01:16:26.680Z,21.64
2023-05-10T01:17:32.247Z,21.65
2023-05-10T01:18:37.661Z,21.67
2023-05-10T01:19:43.030Z,21.67
2023-05-10T01:20:48.396Z,21.66
2023-05-10T01:21:53.759Z,21.66
2023-05-10T01:22:59.134Z,21.66
2023-05-10T01:24:04.502Z,21.65
2023-05-10T01:25:09.861Z,21.66
2023-05-10T01:26:15.206Z,21.64
2023-05-10T01:27:20.726Z,21.65
2023-05-10T01:28:26.158Z,21.67
2023-05-10T01:29:31.583Z,21.66
2023-05-10T01:30:36.921Z,21.65
2023-05-10T01:31:42.364Z,21.64
2023-05-10T01:32:48.005Z,21.65
2023-05-10T01:33:53.471Z,21.66
2023-05-10T01:34:58.887Z,21.66
2023-05-10T01:36:04.232Z,21.65
2023-05-10T01:37:09.556Z,21.64
2023-05-10T01:38:14.868Z,21.65
2023-05-10T01:39:20.187Z,21.64
2023-05-10T01:40:25.637Z,21.64
2023-05-10T01:41:31.041Z,21.63
2023-05-10T01:42:36.441Z,21.62
2023-05-10T01:43:41.811Z,21.61
2023-05-10T01:44:47.127Z,21.61
2023-05-10T01:45:52.462Z,21.59
2023-05-10T01:46:57.912Z,21.61
2023-05-10T01:48:03.527Z,21.61
2023-05-10T01:49:09.211Z,21.62
2023-05-10T01:50:14.803Z,21.6
2023-05-10T01:51:21.485Z,21.62
2023-05-10T01:52:26.835Z,21.63
2023-05-10T01:53:32.156Z,21.61
2023-05-10T01:54:37.580Z,21.6
2023-05-10T01:55:42.999Z,21.59
2023-05-10T01:56:48.348Z,21.59
2023-05-10T01:57:53.685Z,21.6
2023-05-10T01:58:59.046Z,21.61
2023-05-10T02:00:04.403Z,21.59
2023-05-10T02:01:09.787Z,21.6
2023-05-10T02:02:15.324Z,21.61
2023-05-10T02:03:20.662Z,21.6
2023-05-10T02:04:26.197Z,21.6
2023-05-10T02:05:31.538Z,21.61
2023-05-10T02:06:36.873Z,21.6
2023-05-10T02:07:42.254Z,21.6
2023-05-10T02:08:47.623Z,21.6
2023-05-10T02:09:52.979Z,21.6
2023-05-10T02:10:58.299Z,21.61
2023-05-10T02:12:03.664Z,21.6
2023-05-10T02:13:09.164Z,21.6
2023-05-10T02:14:14.689Z,21.6
2023-05-10T02:15:20.114Z,21.62
2023-05-10T02:16:25.465Z,21.63
2023-05-10T02:17:30.867Z,21.63
2023-05-10T02:18:36.301Z,21.62
2023-05-10T02:19:41.695Z,21.6
2023-05-10T02:20:47.291Z,21.59
2023-05-10T02:21:52.641Z,21.6
2023-05-10T02:22:58.017Z,21.6
2023-05-10T02:24:03.413Z,21.6
2023-05-10T02:25:08.722Z,21.59
2023-05-10T02:26:14.060Z,21.59
2023-05-10T02:27:19.449Z,21.59
2023-05-10T02:28:24.870Z,21.59
2023-05-10T02:29:30.272Z,21.6
2023-05-10T02:30:35.593Z,21.6
2023-05-10T02:31:40.950Z,21.6
2023-05-10T02:32:46.437Z,21.59
2023-05-10T02:33:51.911Z,21.59
2023-05-10T02:34:57.239Z,21.6
2023-05-10T02:36:02.537Z,21.61
2023-05-10T02:37:07.926Z,21.63
2023-05-10T02:38:13.272Z,21.63
2023-05-10T02:39:18.594Z,21.61
2023-05-10T02:40:23.962Z,21.6
2023-05-10T02:41:32.548Z,21.59
2023-05-10T02:42:37.887Z,21.6
2023-05-10T02:43:43.255Z,21.59
2023-05-10T02:44:48.624Z,21.62
2023-05-10T02:45:53.953Z,21.6
2023-05-10T02:46:59.409Z,21.59
2023-05-10T02:48:04.805Z,21.6
2023-05-10T02:49:10.301Z,21.59
2023-05-10T02:50:15.864Z,21.59
2023-05-10T02:51:22.034Z,21.59
2023-05-10T02:52:27.339Z,21.59
2023-05-10T02:53:32.714Z,21.61
2023-05-10T02:54:38.159Z,21.6
2023-05-10T02:55:43.547Z,21.6
2023-05-10T02:56:48.880Z,21.59
2023-05-10T02:57:54.242Z,21.58
2023-05-10T02:58:59.559Z,21.59
2023-05-10T03:00:04.876Z,21.58
2023-05-10T03:01:10.239Z,21.58
2023-05-10T03:02:15.720Z,21.57
2023-05-10T03:03:21.053Z,21.56
2023-05-10T03:04:26.440Z,21.58
2023-05-10T03:05:31.861Z,21.57
2023-05-10T03:06:37.178Z,21.57
2023-05-10T03:07:42.481Z,21.57
2023-05-10T03:08:47.818Z,21.56
2023-05-10T03:09:53.217Z,21.56
2023-05-10T03:10:58.553Z,21.57
2023-05-10T03:12:03.910Z,21.57
2023-05-10T03:13:09.300Z,21.56
2023-05-10T03:14:14.874Z,21.57
2023-05-10T03:15:20.225Z,21.58
2023-05-10T03:16:25.675Z,21.59
2023-05-10T03:17:31.351Z,21.58
2023-05-10T03:18:36.869Z,21.58
2023-05-10T03:19:42.218Z,21.58
2023-05-10T03:20:47.529Z,21.58
2023-05-10T03:21:53.943Z,21.58
2023-05-10T03:22:59.282Z,21.58
2023-05-10T03:24:04.681Z,21.58
2023-05-10T03:25:10.033Z,21.6
2023-05-10T03:26:15.369Z,21.6
2023-05-10T03:27:20.706Z,21.6
2023-05-10T03:28:26.073Z,21.64
2023-05-10T03:29:31.442Z,21.63
2023-05-10T03:30:36.854Z,21.61
2023-05-10T03:31:42.238Z,21.61
2023-05-10T03:32:47.846Z,21.61
2023-05-10T03:33:53.368Z,21.59
2023-05-10T03:34:58.778Z,21.6
2023-05-10T03:36:04.154Z,21.6
2023-05-10T03:37:09.510Z,21.6
2023-05-10T03:38:14.858Z,21.62
2023-05-10T03:39:20.192Z,21.63
2023-05-10T03:40:25.526Z,21.64
2023-05-10T03:41:30.866Z,21.64
2023-05-10T03:42:36.222Z,21.64
2023-05-10T03:43:41.548Z,21.64
2023-05-10T03:44:46.874Z,21.65
2023-05-10T03:45:52.238Z,21.65
2023-05-10T03:46:57.647Z,21.65
2023-05-10T03:48:03.200Z,21.66
2023-05-10T03:49:08.836Z,21.66
2023-05-10T03:50:15.332Z,21.67
2023-05-10T03:51:21.906Z,21.67
2023-05-10T03:52:27.249Z,21.69
2023-05-10T03:53:32.602Z,21.68
2023-05-10T03:54:38.037Z,21.67
2023-05-10T03:55:43.379Z,21.76
2023-05-10T03:56:48.688Z,21.8
2023-05-10T03:57:54.025Z,21.78
2023-05-10T03:58:59.352Z,21.73
2023-05-10T04:00:04.689Z,21.68
2023-05-10T04:01:10.005Z,21.63
2023-05-10T04:02:15.370Z,21.59
2023-05-10T04:03:20.889Z,21.54
2023-05-10T04:04:26.467Z,21.53
2023-05-10T04:05:31.807Z,21.52
2023-05-10T04:06:37.206Z,21.51
2023-05-10T04:07:42.746Z,21.52
2023-05-10T04:08:48.131Z,21.5
2023-05-10T04:09:53.454Z,21.48
2023-05-10T04:10:58.804Z,21.48
2023-05-10T04:12:04.154Z,21.52
2023-05-10T04:13:11.691Z,21.52
2023-05-10T04:14:17.137Z,21.53
2023-05-10T04:15:22.474Z,21.51
2023-05-10T04:16:27.943Z,21.52
2023-05-10T04:17:33.491Z,21.56
2023-05-10T04:18:38.913Z,21.56
2023-05-10T04:19:44.260Z,21.56
2023-05-10T04:20:49.644Z,21.58
2023-05-10T04:21:54.997Z,21.58
2023-05-10T04:23:00.358Z,21.58
2023-05-10T04:24:05.672Z,21.58
2023-05-10T04:25:11.012Z,21.58
2023-05-10T04:26:16.353Z,21.58
2023-05-10T04:27:21.727Z,21.61
2023-05-10T04:28:27.092Z,21.61
2023-05-10T04:29:32.466Z,21.62
2023-05-10T04:30:37.862Z,21.62
2023-05-10T04:31:43.298Z,21.6
2023-05-10T04:32:48.777Z,21.6
2023-05-10T04:33:54.212Z,21.59
2023-05-10T04:34:59.667Z,21.59
2023-05-10T04:36:05.030Z,21.59
2023-05-10T04:37:10.374Z,21.61
2023-05-10T04:38:15.676Z,21.59
2023-05-10T04:39:20.991Z,21.6
2023-05-10T04:40:26.319Z,21.6
2023-05-10T04:41:31.688Z,21.59
2023-05-10T04:42:37.053Z,21.57
2023-05-10T04:43:42.406Z,21.57
2023-05-10T04:44:47.756Z,21.6
2023-05-10T04:45:53.089Z,21.6
2023-05-10T04:46:58.550Z,21.58
2023-05-10T04:48:03.899Z,21.58
2023-05-10T04:49:09.366Z,21.58
2023-05-10T04:50:14.956Z,21.6
2023-05-10T04:51:21.038Z,21.62
2023-05-10T04:52:26.413Z,21.6
2023-05-10T04:53:31.748Z,21.57
2023-05-10T04:54:37.096Z,21.62
2023-05-10T04:55:42.433Z,21.59
2023-05-10T04:56:47.793Z,21.57
2023-05-10T04:57:53.135Z,21.56
2023-05-10T04:58:58.471Z,21.56
2023-05-10T05:00:03.832Z,21.56
2023-05-10T05:01:09.240Z,21.58
2023-05-10T05:02:14.817Z,21.58
2023-05-10T05:03:20.190Z,21.56
2023-05-10T05:04:26.014Z,21.57
2023-05-10T05:05:31.340Z,21.57
2023-05-10T05:06:36.642Z,21.57
2023-05-10T05:07:42.013Z,21.58
2023-05-10T05:08:47.501Z,21.58
2023-05-10T05:09:53.202Z,21.58
2023-05-10T05:10:58.526Z,21.56
2023-05-10T05:12:04.871Z,21.58
2023-05-10T05:13:10.228Z,21.58
2023-05-10T05:14:15.658Z,21.59
2023-05-10T05:15:21.054Z,21.57
2023-05-10T05:16:26.430Z,21.57
2023-05-10T05:17:31.919Z,21.57
2023-05-10T05:18:37.356Z,21.55
2023-05-10T05:19:42.674Z,21.56
2023-05-10T05:20:48.132Z,21.54
2023-05-10T05:21:53.485Z,21.55
2023-05-10T05:22:58.811Z,21.55
2023-05-10T05:24:04.161Z,21.57
2023-05-10T05:25:09.538Z,21.55
2023-05-10T05:26:14.913Z,21.55
2023-05-10T05:27:21.277Z,21.56
2023-05-10T05:28:26.657Z,21.55
2023-05-10T05:29:31.976Z,21.56
2023-05-10T05:30:37.334Z,21.56
2023-05-10T05:31:42.676Z,21.56
2023-05-10T05:32:48.250Z,21.56
2023-05-10T05:33:54.070Z,21.55
2023-05-10T05:34:59.462Z,21.53
2023-05-10T05:36:04.834Z,21.53
2023-05-10T05:37:10.145Z,21.53
2023-05-10T05:38:15.499Z,21.54
2023-05-10T05:39:20.883Z,21.52
2023-05-10T05:40:26.242Z,21.53
2023-05-10T05:41:31.594Z,21.54
2023-05-10T05:42:36.976Z,21.53
2023-05-10T05:43:42.396Z,21.52
2023-05-10T05:44:47.756Z,21.51
2023-05-10T05:45:53.169Z,21.5
2023-05-10T05:46:58.700Z,21.51
2023-05-10T05:48:04.056Z,21.52
2023-05-10T05:49:09.628Z,21.55
2023-05-10T05:50:15.019Z,21.53
2023-05-10T05:51:20.358Z,21.53
2023-05-10T05:52:25.710Z,21.5
2023-05-10T05:53:31.026Z,21.5
2023-05-10T05:54:36.398Z,21.5
2023-05-10T05:55:41.827Z,21.49
2023-05-10T05:56:47.381Z,21.5
2023-05-10T05:57:52.688Z,21.5
2023-05-10T05:58:58.013Z,21.5
2023-05-10T06:00:03.433Z,21.5
2023-05-10T06:01:08.825Z,21.48
2023-05-10T06:02:14.185Z,21.47
2023-05-10T06:03:19.837Z,21.48
2023-05-10T06:04:25.622Z,21.48
2023-05-10T06:05:31.459Z,21.49
2023-05-10T06:06:36.811Z,21.49
2023-05-10T06:07:42.141Z,21.48
2023-05-10T06:08:47.491Z,21.48
2023-05-10T06:09:52.842Z,21.48
2023-05-10T06:10:58.213Z,21.47
2023-05-10T06:12:03.546Z,21.48
2023-05-10T06:13:08.935Z,21.48
2023-05-10T06:14:14.427Z,21.49
2023-05-10T06:15:19.816Z,21.48
2023-05-10T06:16:25.204Z,21.47
2023-05-10T06:17:30.615Z,21.48
2023-05-10T06:18:36.080Z,21.47
2023-05-10T06:19:41.408Z,21.46
2023-05-10T06:20:46.811Z,21.48
2023-05-10T06:21:53.782Z,21.46
2023-05-10T06:22:59.239Z,21.47
2023-05-10T06:24:04.556Z,21.48
2023-05-10T06:25:09.913Z,21.47
2023-05-10T06:26:15.354Z,21.46
2023-05-10T06:27:20.683Z,21.46
2023-05-10T06:28:26.056Z,21.45
2023-05-10T06:29:31.377Z,21.49
2023-05-10T06:30:36.713Z,21.48
2023-05-10T06:31:44.505Z,21.48
2023-05-10T06:32:50.464Z,21.5
2023-05-10T06:33:56.798Z,21.49
2023-05-10T06:35:02.251Z,21.51
2023-05-10T06:36:07.580Z,21.5
2023-05-10T06:37:13.027Z,21.5
2023-05-10T06:38:18.442Z,21.48
2023-05-10T06:39:23.806Z,21.45
2023-05-10T06:40:29.216Z,21.44
2023-05-10T06:41:34.586Z,21.45
2023-05-10T06:42:39.926Z,21.44
2023-05-10T06:43:45.292Z,21.45
2023-05-10T06:44:50.660Z,21.42
2023-05-10T06:45:56.017Z,21.4
2023-05-10T06:47:01.509Z,21.36
2023-05-10T06:48:06.865Z,21.28
2023-05-10T06:49:12.368Z,21.28
2023-05-10T06:50:17.707Z,21.25
2023-05-10T06:51:23.045Z,21.22
2023-05-10T06:52:28.383Z,21.19
2023-05-10T06:53:33.715Z,21.17
2023-05-10T06:54:39.054Z,21.17
2023-05-10T06:55:44.416Z,21.14
2023-05-10T06:56:49.740Z,21.12
2023-05-10T06:57:55.075Z,21.11
2023-05-10T06:59:00.532Z,21.12
2023-05-10T07:00:06.104Z,21.12
2023-05-10T07:01:11.842Z,21.11
2023-05-10T07:02:17.924Z,21.11
2023-05-10T07:03:23.644Z,21.11
2023-05-10T07:04:28.973Z,21.12
2023-05-10T07:05:34.678Z,21.13
2023-05-10T07:06:40.615Z,21.14
2023-05-10T07:07:45.996Z,21.13
2023-05-10T07:08:51.317Z,21.11
2023-05-10T07:09:56.648Z,21.09
2023-05-10T07:11:02.053Z,21.1
2023-05-10T07:12:08.735Z,21.09
2023-05-10T07:13:19.105Z,21.09
2023-05-10T07:14:24.774Z,21.11
2023-05-10T07:15:30.109Z,21.1
2023-05-10T07:16:35.457Z,21.1
2023-05-10T07:17:43.174Z,21.09
2023-05-10T07:18:50.309Z,21.12
2023-05-10T07:19:55.718Z,21.09
2023-05-10T07:21:01.110Z,21.08
2023-05-10T07:22:06.609Z,21.02
2023-05-10T07:23:11.932Z,21.01
2023-05-10T07:24:17.241Z,21.01
2023-05-10T07:25:22.566Z,21.03
2023-05-10T07:26:27.929Z,21.01
2023-05-10T07:27:33.287Z,20.98
2023-05-10T07:28:38.684Z,20.99
2023-05-10T07:29:44.167Z,21.02
2023-05-10T07:30:49.527Z,20.99
2023-05-10T07:31:57.163Z,21
2023-05-10T07:33:04.136Z,21
2023-05-10T07:34:10.600Z,21.01
2023-05-10T07:35:16.101Z,21.03
2023-05-10T07:36:21.914Z,21.02
2023-05-10T07:37:27.291Z,21.04
2023-05-10T07:38:32.641Z,21.02
2023-05-10T07:39:38.030Z,21.04
2023-05-10T07:40:43.448Z,21.01
2023-05-10T07:41:48.800Z,21.03
2023-05-10T07:42:54.127Z,21.03
2023-05-10T07:43:59.464Z,21.01
2023-05-10T07:45:04.871Z,21.01
2023-05-10T07:46:10.326Z,21
2023-05-10T07:47:15.746Z,21.02
2023-05-10T07:48:21.098Z,21.02
2023-05-10T07:49:26.427Z,21.01
2023-05-10T07:50:31.755Z,21.04
2023-05-10T07:51:37.138Z,21.04
2023-05-10T07:52:42.470Z,21.04
2023-05-10T07:53:47.788Z,21.05
2023-05-10T07:54:53.153Z,21.05
2023-05-10T07:55:58.546Z,21.05
2023-05-10T07:57:03.884Z,21.06
2023-05-10T07:58:09.253Z,21.01
2023-05-10T07:59:14.602Z,21.03
2023-05-10T08:00:19.933Z,21.02
2023-05-10T08:01:25.459Z,21.03
2023-05-10T08:02:30.850Z,21.05
2023-05-10T08:03:36.464Z,21.03
2023-05-10T08:04:42.252Z,21.01
2023-05-10T08:05:48.043Z,21.01
2023-05-10T08:06:53.359Z,21
2023-05-10T08:07:58.695Z,21.01
2023-05-10T08:09:04.025Z,21.01
2023-05-10T08:10:09.364Z,21.01
2023-05-10T08:11:14.742Z,21
2023-05-10T08:12:21.406Z,21.01
2023-05-10T08:13:26.736Z,21
2023-05-10T08:14:32.115Z,21.01
2023-05-10T08:15:37.448Z,21.02
2023-05-10T08:16:42.913Z,21.02
2023-05-10T08:17:48.309Z,21.03
2023-05-10T08:18:53.836Z,21.02
2023-05-10T08:19:59.388Z,21.04
2023-05-10T08:21:04.772Z,21.05
2023-05-10T08:22:10.095Z,21.05
2023-05-10T08:23:15.450Z,21.04
2023-05-10T08:24:20.827Z,21.05
2023-05-10T08:25:26.175Z,21.06
2023-05-10T08:26:31.466Z,21.09
2023-05-10T08:27:36.808Z,21.08
2023-05-10T08:28:42.211Z,21.07
2023-05-10T08:29:50.306Z,21.06
2023-05-10T08:30:55.844Z,21.03
2023-05-10T08:32:01.224Z,21.04
2023-05-10T08:33:06.604Z,21.07
2023-05-10T08:34:12.133Z,21.07
2023-05-10T08:35:17.626Z,21.05
2023-05-10T08:36:23.157Z,21.07
2023-05-10T08:37:28.535Z,21.05
2023-05-10T08:38:33.859Z,21.06
2023-05-10T08:39:39.229Z,21.08
2023-05-10T08:40:44.682Z,21.06
2023-05-10T08:41:50.038Z,21.05
2023-05-10T08:42:55.404Z,21.06
2023-05-10T08:44:00.808Z,21.07
2023-05-10T08:45:06.142Z,21.08
2023-05-10T08:46:11.551Z,21.08
2023-05-10T08:47:17.141Z,21.07
2023-05-10T08:48:22.546Z,21.09
2023-05-10T08:49:27.970Z,21.09
2023-05-10T08:50:33.295Z,21.1
2023-05-10T08:51:38.645Z,21.07
2023-05-10T08:52:46.624Z,21.07
2023-05-10T08:53:52.054Z,21.07
2023-05-10T08:54:57.387Z,21.08
2023-05-10T08:56:02.775Z,21.11
2023-05-10T08:57:08.225Z,21.08
2023-05-10T08:58:13.620Z,21.08
2023-05-10T08:59:18.969Z,21.06
2023-05-10T09:00:24.318Z,21.05
2023-05-10T09:01:29.735Z,21.06
2023-05-10T09:02:35.245Z,21.06
2023-05-10T09:03:40.709Z,21.08
2023-05-10T09:04:46.254Z,21.08
2023-05-10T09:05:51.918Z,21.09
2023-05-10T09:06:57.282Z,21.1
2023-05-10T09:08:02.800Z,21.11
2023-05-10T09:09:08.142Z,21.12
2023-05-10T09:10:13.463Z,21.09
2023-05-10T09:11:18.894Z,21.07
2023-05-10T09:12:24.222Z,21.09
2023-05-10T09:13:29.570Z,21.11
2023-05-10T09:14:34.907Z,21.1
2023-05-10T09:15:40.284Z,21.09
2023-05-10T09:16:45.716Z,21.09
2023-05-10T09:17:51.186Z,21.08
2023-05-10T09:18:56.708Z,21.09
2023-05-10T09:20:02.137Z,21.07
2023-05-10T09:21:07.525Z,21.05
2023-05-10T09:22:12.897Z,21.03
2023-05-10T09:23:18.241Z,21.04
2023-05-10T09:24:23.586Z,21.03
2023-05-10T09:25:28.922Z,21.06
2023-05-10T09:26:34.310Z,21.06
2023-05-10T09:27:39.742Z,21.08
2023-05-10T09:28:45.094Z,21.08
2023-05-10T09:29:50.437Z,21.07
2023-05-10T09:30:55.785Z,21.08
2023-05-10T09:32:01.240Z,21.1
2023-05-10T09:33:06.740Z,21.09
2023-05-10T09:34:12.184Z,21.07
2023-05-10T09:35:17.742Z,21.08
2023-05-10T09:36:23.437Z,21.1
2023-05-10T09:37:28.794Z,21.09
2023-05-10T09:38:34.163Z,21.12
2023-05-10T09:39:39.488Z,21.11
2023-05-10T09:40:44.808Z,21.12
2023-05-10T09:41:50.123Z,21.13
2023-05-10T09:42:55.487Z,21.13
2023-05-10T09:44:00.829Z,21.12
2023-05-10T09:45:06.281Z,21.11
2023-05-10T09:46:11.649Z,21.1
2023-05-10T09:47:17.083Z,21.1
2023-05-10T09:48:22.459Z,21.1
2023-05-10T09:49:27.833Z,21.11
2023-05-10T09:50:33.197Z,21.11
2023-05-10T09:51:38.579Z,21.13
2023-05-10T09:52:43.965Z,21.14
2023-05-10T09:53:49.277Z,21.15
2023-05-10T09:54:54.677Z,21.14
2023-05-10T09:56:00.075Z,21.14
2023-05-10T09:57:05.433Z,21.12
2023-05-10T09:58:10.825Z,21.11
2023-05-10T09:59:16.168Z,21.13
2023-05-10T10:00:21.506Z,21.12
2023-05-10T10:01:26.928Z,21.11
2023-05-10T10:02:32.403Z,21.12
2023-05-10T10:03:37.912Z,21.13
2023-05-10T10:04:43.281Z,21.12
2023-05-10T10:05:48.768Z,21.11
2023-05-10T10:06:54.113Z,21.11
2023-05-10T10:07:59.443Z,21.09
2023-05-10T10:09:04.851Z,21.1
2023-05-10T10:10:10.217Z,21.11
2023-05-10T10:11:15.563Z,21.12
2023-05-10T10:12:20.965Z,21.1
2023-05-10T10:13:26.363Z,21.1
2023-05-10T10:14:31.743Z,21.11
2023-05-10T10:15:37.111Z,21.11
2023-05-10T10:16:51.790Z,21.1
2023-05-10T10:18:12.696Z,21.12
2023-05-10T10:19:18.239Z,21.13
2023-05-10T10:20:23.577Z,21.13
2023-05-10T10:21:29.585Z,21.13
2023-05-10T10:22:34.926Z,21.13
2023-05-10T10:23:40.292Z,21.12
2023-05-10T10:24:45.641Z,21.08
2023-05-10T10:25:50.992Z,21.09
2023-05-10T10:26:56.394Z,21.11
2023-05-10T10:28:01.728Z,21.16
2023-05-10T10:29:07.076Z,21.14
2023-05-10T10:30:12.511Z,21.15
2023-05-10T10:31:18.105Z,21.13
2023-05-10T10:32:23.686Z,21.14
2023-05-10T10:33:29.391Z,21.14
2023-05-10T10:34:34.890Z,21.16
2023-05-10T10:35:40.265Z,21.14
2023-05-10T10:36:45.596Z,21.13
2023-05-10T10:37:50.951Z,21.12
2023-05-10T10:38:56.262Z,21.12
2023-05-10T10:40:01.620Z,21.12
2023-05-10T10:41:06.940Z,21.11
2023-05-10T10:42:12.287Z,21.11
2023-05-10T10:43:17.620Z,21.11
2023-05-10T10:44:23.141Z,21.14
2023-05-10T10:45:28.679Z,21.16
2023-05-10T10:46:34.042Z,21.14
2023-05-10T10:47:39.908Z,21.12
2023-05-10T10:48:45.465Z,21.15
2023-05-10T10:49:50.824Z,21.15
2023-05-10T10:50:56.170Z,21.15
2023-05-10T10:52:01.504Z,21.17
2023-05-10T10:53:06.870Z,21.19
2023-05-10T10:54:12.386Z,21.19
2023-05-10T10:55:17.864Z,21.16
2023-05-10T10:56:23.762Z,21.14
2023-05-10T10:57:29.174Z,21.15
2023-05-10T10:58:34.574Z,21.13
2023-05-10T10:59:39.932Z,21.16
2023-05-10T11:00:45.298Z,21.17
2023-05-10T11:01:50.739Z,21.18
2023-05-10T11:02:56.175Z,21.19
2023-05-10T11:04:01.870Z,21.19
2023-05-10T11:05:07.401Z,21.18
2023-05-10T11:06:12.766Z,21.19
2023-05-10T11:07:18.132Z,21.18
2023-05-10T11:08:23.453Z,21.19
2023-05-10T11:09:28.791Z,21.19
2023-05-10T11:10:34.144Z,21.19
2023-05-10T11:11:39.670Z,21.19
2023-05-10T11:12:45.069Z,21.19
2023-05-10T11:13:51.285Z,21.19
2023-05-10T11:14:57.014Z,21.19
2023-05-10T11:16:02.352Z,21.19
2023-05-10T11:17:07.742Z,21.2
2023-05-10T11:18:13.444Z,21.19
2023-05-10T11:19:18.798Z,21.2
2023-05-10T11:20:24.203Z,21.2
2023-05-10T11:21:29.514Z,21.2
2023-05-10T11:22:34.887Z,21.19
2023-05-10T11:23:40.192Z,21.2
2023-05-10T11:24:45.555Z,21.19
2023-05-10T11:25:52.949Z,21.19
2023-05-10T11:26:58.307Z,21.19
2023-05-10T11:28:03.805Z,21.21
2023-05-10T11:29:09.201Z,21.2
2023-05-10T11:30:14.679Z,21.2
2023-05-10T11:31:21.311Z,21.2
2023-05-10T11:32:26.955Z,21.19
2023-05-10T11:33:32.673Z,21.19
2023-05-10T11:34:37.999Z,21.18
2023-05-10T11:35:43.763Z,21.18
2023-05-10T11:36:49.244Z,21.18
2023-05-10T11:37:54.599Z,21.18
2023-05-10T11:38:59.931Z,21.18
2023-05-10T11:40:05.301Z,21.18
2023-05-10T11:41:10.625Z,21.19
2023-05-10T11:42:16.060Z,21.2
2023-05-10T11:43:21.421Z,21.2
2023-05-10T11:44:26.769Z,21.2
2023-05-10T11:45:32.096Z,21.21
2023-05-10T11:46:37.489Z,21.21
2023-05-10T11:47:43.090Z,21.19
2023-05-10T11:48:48.734Z,21.2
2023-05-10T11:49:54.184Z,21.2
2023-05-10T11:50:59.745Z,21.21
2023-05-10T11:52:05.082Z,21.2
2023-05-10T11:53:10.522Z,21.2
2023-05-10T11:54:15.896Z,21.21
2023-05-10T11:55:23.528Z,21.21
2023-05-10T11:56:28.883Z,21.21
2023-05-10T11:57:34.607Z,21.21
2023-05-10T11:58:39.985Z,21.19
2023-05-10T11:59:45.335Z,21.2
2023-05-10T12:00:50.717Z,21.2
2023-05-10T12:01:56.070Z,21.2
2023-05-10T12:03:01.495Z,21.21
2023-05-10T12:04:07.323Z,21.2
2023-05-10T12:05:13.340Z,21.21
2023-05-10T12:06:18.677Z,21.2
2023-05-10T12:07:24.040Z,21.2
2023-05-10T12:08:29.374Z,21.21
2023-05-10T12:09:43.553Z,21.22
2023-05-10T12:10:49.187Z,21.2
2023-05-10T12:11:54.537Z,21.22
2023-05-10T12:12:59.879Z,21.2
2023-05-10T12:14:05.202Z,21.2
2023-05-10T12:15:10.626Z,21.2
2023-05-10T12:16:16.049Z,21.21
2023-05-10T12:17:21.526Z,21.22
2023-05-10T12:18:26.902Z,21.2
2023-05-10T12:19:32.378Z,21.21
2023-05-10T12:20:37.699Z,21.21
2023-05-10T12:21:43.017Z,21.19
2023-05-10T12:22:48.394Z,21.19
2023-05-10T12:23:53.820Z,21.16
2023-05-10T12:24:59.149Z,21.18
2023-05-10T12:26:04.456Z,21.18
2023-05-10T12:27:09.846Z,21.2
2023-05-10T12:28:15.229Z,21.19
2023-05-10T12:29:20.548Z,21.2
2023-05-10T12:30:25.888Z,21.19
2023-05-10T12:31:31.356Z,21.2
2023-05-10T12:32:36.904Z,21.2
2023-05-10T12:33:42.415Z,21.2
2023-05-10T12:34:47.740Z,21.21
2023-05-10T12:35:53.065Z,21.21
2023-05-10T12:36:58.451Z,21.21
2023-05-10T12:38:03.886Z,21.22
2023-05-10T12:39:09.224Z,21.22
2023-05-10T12:40:14.609Z,21.21
2023-05-10T12:41:20.675Z,21.21
2023-05-10T12:42:26.354Z,21.21
2023-05-10T12:43:31.683Z,21.21
2023-05-10T12:44:37.096Z,21.21
2023-05-10T12:45:42.686Z,21.2
2023-05-10T12:46:48.079Z,21.2
2023-05-10T12:47:53.406Z,21.2
2023-05-10T12:49:08.329Z,21.21
2023-05-10T12:50:14.498Z,21.22
2023-05-10T12:51:20.845Z,21.21
2023-05-10T12:52:26.226Z,21.21
2023-05-10T12:53:31.562Z,21.22
2023-05-10T12:54:36.923Z,21.22
2023-05-10T12:55:42.248Z,21.23
2023-05-10T12:56:47.605Z,21.23
2023-05-10T12:57:52.924Z,21.23
2023-05-10T12:58:58.253Z,21.23
2023-05-10T13:00:03.672Z,21.21
2023-05-10T13:01:09.056Z,21.22
2023-05-10T13:02:14.501Z,21.21
2023-05-10T13:03:19.851Z,21.22
2023-05-10T13:04:25.240Z,21.23
2023-05-10T13:05:30.699Z,21.22
2023-05-10T13:06:36.073Z,21.23
2023-05-10T13:07:41.443Z,21.22
2023-05-10T13:08:46.792Z,21.22
2023-05-10T13:09:52.187Z,21.23
2023-05-10T13:10:57.511Z,21.23
2023-05-10T13:12:02.835Z,21.21
2023-05-10T13:13:08.783Z,21.23
2023-05-10T13:14:14.116Z,21.22
2023-05-10T13:15:19.465Z,21.22
2023-05-10T13:16:24.943Z,21.22
2023-05-10T13:17:31.571Z,21.22
2023-05-10T13:18:38.457Z,21.23
2023-05-10T13:19:44.050Z,21.24
2023-05-10T13:20:49.389Z,21.21
2023-05-10T13:21:54.758Z,21.22
2023-05-10T13:23:00.125Z,21.2
2023-05-10T13:24:05.459Z,21.22
2023-05-10T13:25:10.828Z,21.21
2023-05-10T13:26:16.225Z,21.22
2023-05-10T13:27:21.634Z,21.25
2023-05-10T13:28:27.033Z,21.24
2023-05-10T13:29:32.419Z,21.26
2023-05-10T13:30:37.773Z,21.24
2023-05-10T13:31:43.134Z,21.24
2023-05-10T13:32:48.796Z,21.23
2023-05-10T13:33:54.274Z,21.24
2023-05-10T13:34:59.634Z,21.23
2023-05-10T13:36:04.940Z,21.25
2023-05-10T13:37:10.297Z,21.23
2023-05-10T13:38:15.673Z,21.21
2023-05-10T13:39:23.055Z,21.22
2023-05-10T13:40:28.559Z,21.23
2023-05-10T13:41:33.893Z,21.22
2023-05-10T13:42:39.296Z,21.22
2023-05-10T13:43:44.658Z,21.21
2023-05-10T13:44:50.171Z,21.23
2023-05-10T13:45:55.543Z,21.24
2023-05-10T13:47:01.046Z,21.23
2023-05-10T13:48:06.567Z,21.24
2023-05-10T13:49:12.151Z,21.25
2023-05-10T13:50:17.540Z,21.26
2023-05-10T13:51:22.878Z,21.26
2023-05-10T13:52:28.338Z,21.26
2023-05-10T13:53:33.705Z,21.25
2023-05-10T13:54:39.082Z,21.23
2023-05-10T13:55:44.417Z,21.21
2023-05-10T13:56:49.774Z,21.22
2023-05-10T13:57:55.181Z,21.25
2023-05-10T13:59:00.534Z,21.24
2023-05-10T14:00:05.846Z,21.24
2023-05-10T14:01:11.306Z,21.25
2023-05-10T14:02:16.728Z,21.24
2023-05-10T14:03:22.197Z,21.26
2023-05-10T14:04:27.873Z,21.25
2023-05-10T14:05:33.221Z,21.25
2023-05-10T14:06:38.594Z,21.25
2023-05-10T14:07:44.026Z,21.25